Startpagina
METAR-TAF:

METAR-TAF

Vliegvelden :

Flughafen Weeze

Weeze, Duitsland

breedte: 51-36-09N, lengte: 006-08-32E, hoogte: 32 m

Actueel weer

Dit bericht is 13 minuten geleden gemaakt, om 12:20 UTC
Wind 8 kt uit het oosten, variërend tussen het noorden en het zuidoosten
Temperatuur 24°C
Vochtigheid 36%
Druk 1014 hPa
Zicht 10 km of meer
geen wolken onder 1500 m en geen cumulonimbus

METAR: EDLV 211220Z 09008KT 360V130 CAVOK 24/08 Q1014

Tijdstip: 14:33 (12:33 UTC)

Verwachting

Dit bericht is 1 uur en het 33 minuten geleden gemaakt, om 11:00 UTC
Verwachting geldig van 21 om 12 UTC tot 22 om 12 UTC
Wind 9 kt uit het oosten
Zicht 10 km of meer
geen wolken onder 1500 m en geen cumulonimbus
Wijzigt naar
van 21 om 16 UTC tot 21 om 18 UTC
Wind 4 kt uit het noordoosten
Kans 30% :
Tijdelijke
van 22 om 02 UTC tot 22 om 05 UTC
Wind 10 kt uit het noordnoordoosten
Verspreide wolken op 2000 ft, Cumulonimbus.
onweer, regen

TAF: EDLV 211100Z 2112/2212 09009KT CAVOK BECMG 2116/2118 05004KT PROB30 TEMPO 2202/2205 03010KT TSRA SCT020CB

Waarnemingen en weersverwachtingen van meer dan 4000 vliegvelden (METAR en TAF).

De beschikbare stations zijn de gele en rode punten op de kaart.

Ga met uw muis naar het station om de naam te zien.

Klik dan om waarnemingen en weersverwachtingen te zien.

kaart wijzigen: klik op de groene knoppen met een zwart kruis om in te zoomen, op de groene knop met een streepje om uit te zoomen of op de groene pijlen voor aangrenzende kaarten.


METAR-TAF: